Time;durP1;ratioP1;P1;durP2;ratioP2;P2;SDS_P1;SDS_P2;PMS_P1;PMS_P2;Temp;Humidity;BMP_temperature;BMP_pressure;BME280_temperature;BME280_humidity;BME280_pressure;Samples;Min_cycle;Max_cycle;Signal;HPM_P1;HPM_P2
2021/04/29 00:01:14;;;;;;;18.80;8.63;;;;;;;12.32;80.37;99706.91;5101473;28;20088;-75
2021/04/29 00:03:40;;;;;;;19.38;8.35;;;;;;;12.27;80.05;99701.28;5101060;28;20111;-77
2021/04/29 00:06:06;;;;;;;21.42;8.30;;;;;;;12.31;80.53;99713.22;5101765;28;20039;-77
2021/04/29 00:08:32;;;;;;;19.42;8.98;;;;;;;12.32;79.67;99710.38;5099302;28;20035;-76
2021/04/29 00:10:58;;;;;;;18.35;7.75;;;;;;;12.35;79.82;99711.88;5101415;28;20047;-75
2021/04/29 00:13:23;;;;;;;28.17;9.00;;;;;;;12.39;80.06;99714.00;5100251;28;20028;-75
2021/04/29 00:15:49;;;;;;;24.63;8.73;;;;;;;12.46;78.80;99709.66;5101632;28;20081;-75
2021/04/29 00:18:15;;;;;;;17.95;8.73;;;;;;;12.43;78.29;99699.38;5100000;28;21198;-75
2021/04/29 00:20:41;;;;;;;20.83;8.65;;;;;;;12.46;78.13;99700.84;5102933;28;20342;-75
2021/04/29 00:23:07;;;;;;;16.63;8.23;;;;;;;12.44;78.65;99703.69;5100611;28;20051;-75
2021/04/29 00:25:32;;;;;;;20.10;7.22;;;;;;;12.46;78.00;99707.00;5100372;28;20244;-75
2021/04/29 00:27:58;;;;;;;16.98;7.57;;;;;;;12.62;77.99;99707.94;5100487;28;20054;-75
2021/04/29 00:30:24;;;;;;;15.70;7.55;;;;;;;12.72;77.38;99701.38;5101106;28;20028;-75
2021/04/29 00:32:49;;;;;;;17.77;8.13;;;;;;;12.74;76.95;99703.84;5100408;28;20245;-75
2021/04/29 00:35:15;;;;;;;15.48;8.23;;;;;;;12.79;76.86;99709.47;5101987;28;20036;-75
2021/04/29 00:37:40;;;;;;;17.20;8.20;;;;;;;12.71;76.30;99709.53;5100706;28;20133;-75
2021/04/29 00:40:07;;;;;;;14.98;7.63;;;;;;;12.68;76.49;99710.69;5100952;28;20032;-75
2021/04/29 00:42:39;;;;;;;15.88;7.93;;;;;;;12.46;76.97;99701.69;5099373;28;20257;-75
2021/04/29 00:45:07;;;;;;;17.77;7.47;;;;;;;12.43;77.29;99712.66;5099812;28;20030;-77
2021/04/29 00:47:33;;;;;;;14.15;7.57;;;;;;;12.53;76.92;99712.47;5100391;28;20089;-76
2021/04/29 00:49:59;;;;;;;13.77;7.25;;;;;;;12.61;75.91;99717.72;5099530;28;20326;-77
2021/04/29 00:52:25;;;;;;;14.13;6.78;;;;;;;12.73;75.79;99718.97;5100807;28;20020;-74
2021/04/29 00:54:51;;;;;;;16.63;7.65;;;;;;;12.75;74.93;99713.47;5108432;28;20243;-74
2021/04/29 00:57:16;;;;;;;17.50;7.32;;;;;;;12.82;75.37;99713.59;5104062;28;20039;-75
2021/04/29 00:59:42;;;;;;;14.05;7.38;;;;;;;12.90;74.60;99719.69;5104415;28;20040;-75
2021/04/29 01:02:08;;;;;;;14.45;7.25;;;;;;;12.99;74.21;99707.97;5103578;28;20051;-75
2021/04/29 01:04:44;;;;;;;13.30;7.25;;;;;;;13.07;74.03;99712.41;5104595;28;20027;-75
2021/04/29 01:07:12;;;;;;;19.33;8.02;;;;;;;13.10;74.38;99704.06;5104111;28;20253;-75
2021/04/29 01:09:47;;;;;;;19.25;7.80;;;;;;;13.15;73.14;99712.34;5104395;28;20315;-75
2021/04/29 01:12:17;;;;;;;16.48;7.07;;;;;;;13.08;73.51;99708.75;5102889;28;20020;-75
2021/04/29 01:14:42;;;;;;;16.55;7.43;;;;;;;12.88;73.50;99691.63;5103951;28;20090;-75
2021/04/29 01:17:11;;;;;;;17.30;7.43;;;;;;;12.75;74.46;99686.91;5103221;28;20024;-75
2021/04/29 01:19:42;;;;;;;14.60;6.65;;;;;;;12.70;74.34;99679.47;5107182;28;20135;-75
2021/04/29 01:22:09;;;;;;;17.35;7.70;;;;;;;12.63;74.30;99691.81;5111890;28;20035;-76
2021/04/29 01:24:49;;;;;;;17.70;8.05;;;;;;;12.75;74.54;99701.03;5105357;28;20028;-75
2021/04/29 01:27:16;;;;;;;16.25;6.72;;;;;;;12.90;73.62;99706.41;5115503;28;20320;-75
2021/04/29 01:29:43;;;;;;;15.57;7.25;;;;;;;13.00;72.94;99720.25;5125339;28;20039;-75
2021/04/29 01:32:10;;;;;;;17.17;7.25;;;;;;;13.09;72.37;99724.50;5123265;28;20015;-75
2021/04/29 01:34:37;;;;;;;14.32;7.30;;;;;;;13.12;72.35;99731.31;5103716;28;20031;-75
2021/04/29 01:37:04;;;;;;;16.02;7.63;;;;;;;13.16;72.64;99716.66;5101888;28;20016;-77
2021/04/29 01:39:30;;;;;;;13.95;7.47;;;;;;;13.23;72.05;99720.28;5104376;28;20023;-77
2021/04/29 01:41:56;;;;;;;16.55;9.05;;;;;;;13.17;71.73;99715.69;5104490;28;20036;-75
2021/04/29 01:44:24;;;;;;;14.73;8.02;;;;;;;13.13;71.56;99718.84;5103707;28;20093;-75
2021/04/29 01:46:50;;;;;;;14.68;7.20;;;;;;;13.08;71.19;99716.72;5102619;28;20032;-75
2021/04/29 01:49:16;;;;;;;20.65;7.32;;;;;;;12.96;70.41;99707.50;5102830;28;20031;-74
2021/04/29 01:51:43;;;;;;;19.75;8.10;;;;;;;12.71;71.88;99707.69;5103532;28;20249;-75
2021/04/29 01:54:11;;;;;;;14.63;7.88;;;;;;;12.57;72.01;99703.13;5102744;28;20031;-75
2021/04/29 01:56:37;;;;;;;15.40;7.70;;;;;;;12.60;71.82;99707.28;5104349;28;20051;-75
2021/04/29 01:59:07;;;;;;;15.85;7.80;;;;;;;12.68;72.07;99715.19;5101951;28;20047;-75
2021/04/29 02:01:34;;;;;;;17.58;7.75;;;;;;;12.67;71.69;99722.34;5102557;28;20321;-75
2021/04/29 02:04:00;;;;;;;22.50;7.78;;;;;;;12.71;71.77;99717.50;5102759;28;20063;-75
2021/04/29 02:06:25;;;;;;;13.93;7.22;;;;;;;12.76;70.83;99708.00;5108474;28;20028;-75
2021/04/29 02:08:51;;;;;;;14.02;7.30;;;;;;;12.65;70.65;99720.84;5103929;28;20024;-75
2021/04/29 02:11:17;;;;;;;18.85;7.47;;;;;;;12.61;71.54;99708.94;5103235;28;20069;-75
2021/04/29 02:13:47;;;;;;;11.23;7.45;;;;;;;12.68;70.94;99715.19;5101818;28;20032;-75
2021/04/29 02:16:16;;;;;;;14.77;7.28;;;;;;;12.57;71.15;99708.44;5104465;28;20028;-75
2021/04/29 02:18:46;;;;;;;11.68;6.93;;;;;;;12.62;70.92;99710.59;5103471;28;20096;-77
2021/04/29 02:21:15;;;;;;;12.00;6.00;;;;;;;12.44;70.84;99709.00;5101093;28;20023;-76
2021/04/29 02:23:43;;;;;;;12.43;6.43;;;;;;;12.45;71.68;99712.47;5102910;28;20089;-75
2021/04/29 02:26:09;;;;;;;9.07;6.03;;;;;;;12.41;71.11;99708.53;5102230;28;20087;-75
2021/04/29 02:28:35;;;;;;;13.30;7.40;;;;;;;12.37;71.38;99710.69;5102849;28;20036;-74
2021/04/29 02:31:03;;;;;;;17.02;7.30;;;;;;;12.35;70.63;99710.03;5101244;28;20095;-75
2021/04/29 02:33:28;;;;;;;11.82;6.47;;;;;;;12.37;70.83;99717.84;5101794;28;20027;-75
2021/04/29 02:35:55;;;;;;;16.25;6.47;;;;;;;12.32;71.54;99712.22;5103427;28;20388;-74
2021/04/29 02:38:21;;;;;;;10.57;6.07;;;;;;;12.30;70.98;99715.06;5103346;28;20027;-75
2021/04/29 02:40:48;;;;;;;13.10;6.97;;;;;;;12.23;71.85;99710.59;5105737;28;20028;-75
2021/04/29 02:43:14;;;;;;;20.55;7.70;;;;;;;12.30;71.28;99712.38;5102101;28;20024;-74
2021/04/29 02:45:42;;;;;;;11.15;6.97;;;;;;;12.27;71.01;99711.91;5101098;28;20046;-75
2021/04/29 02:48:09;;;;;;;15.68;7.10;;;;;;;12.31;70.87;99718.53;5103441;28;20300;-75
2021/04/29 02:50:35;;;;;;;11.90;7.15;;;;;;;12.32;71.48;99714.88;5102540;28;20019;-75
2021/04/29 02:53:01;;;;;;;10.95;5.75;;;;;;;12.25;70.97;99725.38;5102412;28;20020;-75
2021/04/29 02:55:26;;;;;;;8.13;5.07;;;;;;;12.21;72.03;99723.22;5100879;28;20016;-77
2021/04/29 02:58:00;;;;;;;9.93;6.53;;;;;;;12.12;71.57;99720.59;5101726;28;20113;-76
2021/04/29 03:00:26;;;;;;;12.50;7.70;;;;;;;12.17;71.19;99732.53;5102327;28;20040;-74
2021/04/29 03:02:51;;;;;;;16.13;10.00;;;;;;;12.17;71.37;99735.19;5102331;28;20077;-75
2021/04/29 03:05:17;;;;;;;16.42;8.73;;;;;;;12.12;70.92;99725.09;5100916;28;20367;-76
2021/04/29 03:07:42;;;;;;;15.07;8.70;;;;;;;12.21;70.31;99734.66;5100916;28;20035;-76
2021/04/29 03:10:10;;;;;;;17.58;8.02;;;;;;;12.27;71.02;99741.13;5103001;28;20305;-75
2021/04/29 03:12:36;;;;;;;17.95;8.95;;;;;;;12.28;71.15;99740.13;5100363;28;20070;-75
2021/04/29 03:15:03;;;;;;;20.60;8.30;;;;;;;12.12;71.25;99739.19;5101513;28;20059;-75
2021/04/29 03:17:29;;;;;;;20.65;9.18;;;;;;;12.21;71.80;99747.13;5100490;28;20043;-75
2021/04/29 03:19:55;;;;;;;21.67;10.25;;;;;;;12.21;71.23;99749.78;5102810;28;20031;-75
2021/04/29 03:22:20;;;;;;;23.35;10.27;;;;;;;12.07;70.73;99725.59;5102101;28;20027;-74
2021/04/29 03:24:48;;;;;;;18.05;9.50;;;;;;;12.18;71.12;99750.94;5101640;28;20246;-75
2021/04/29 03:27:13;;;;;;;17.98;9.32;;;;;;;12.16;71.17;99763.56;5100405;28;20027;-75
2021/04/29 03:29:39;;;;;;;19.75;9.75;;;;;;;12.22;71.12;99764.69;5102188;28;20244;-75
2021/04/29 03:32:04;;;;;;;18.95;9.65;;;;;;;12.28;71.18;99764.84;5101323;28;20035;-75
2021/04/29 03:34:30;;;;;;;17.23;9.48;;;;;;;12.34;70.85;99774.78;5100898;28;20024;-75
2021/04/29 03:36:55;;;;;;;20.55;9.75;;;;;;;12.41;70.53;99773.06;5101243;28;20039;-75
2021/04/29 03:39:21;;;;;;;17.50;8.07;;;;;;;12.44;69.64;99785.19;5101288;28;20042;-75
2021/04/29 03:41:46;;;;;;;13.10;8.55;;;;;;;12.53;69.67;99776.19;5102177;28;20269;-75
2021/04/29 03:44:11;;;;;;;16.17;9.25;;;;;;;12.58;69.68;99781.00;5100664;28;20051;-75
2021/04/29 03:46:37;;;;;;;20.70;9.40;;;;;;;12.55;69.29;99763.56;5100515;28;20225;-77
2021/04/29 03:49:03;;;;;;;19.92;9.70;;;;;;;12.63;69.85;99771.50;5100840;28;20035;-77
2021/04/29 03:51:28;;;;;;;23.20;9.98;;;;;;;12.63;70.06;99770.69;5101609;28;20023;-75
2021/04/29 03:53:54;;;;;;;23.60;11.77;;;;;;;12.67;69.67;99778.13;5101149;28;20360;-75
2021/04/29 03:56:19;;;;;;;20.42;10.77;;;;;;;12.56;70.43;99778.50;5101748;28;20020;-74
2021/04/29 03:58:44;;;;;;;16.02;9.02;;;;;;;12.43;70.75;99784.34;5100807;28;20024;-74
2021/04/29 04:01:10;;;;;;;17.40;8.55;;;;;;;12.38;71.25;99791.19;5099692;28;20076;-74
2021/04/29 04:03:35;;;;;;;18.85;8.38;;;;;;;12.24;71.60;99787.41;5101465;28;20188;-74
2021/04/29 04:06:01;;;;;;;14.57;8.88;;;;;;;12.38;71.47;99788.53;5101441;28;20348;-75
2021/04/29 04:08:26;;;;;;;16.90;9.65;;;;;;;12.42;71.47;99776.56;5103818;28;20197;-75
2021/04/29 04:10:52;;;;;;;17.70;8.10;;;;;;;12.28;72.35;99793.22;5108096;28;20040;-75
2021/04/29 04:13:21;;;;;;;13.68;9.68;;;;;;;12.25;73.31;99783.75;5117619;28;20095;-74
2021/04/29 04:15:48;;;;;;;18.48;9.10;;;;;;;12.27;73.96;99797.69;5115875;28;20031;-75
2021/04/29 04:18:13;;;;;;;13.18;8.57;;;;;;;12.30;73.23;99800.00;5107757;28;20218;-74
2021/04/29 04:20:42;;;;;;;16.52;8.55;;;;;;;12.19;73.65;99796.91;5105998;28;20039;-75
2021/04/29 04:23:10;;;;;;;16.92;9.38;;;;;;;12.01;74.20;99800.59;5117572;28;20039;-75
2021/04/29 04:25:35;;;;;;;15.20;9.13;;;;;;;11.96;74.72;99797.63;5109412;28;20036;-74
2021/04/29 04:28:01;;;;;;;17.45;8.38;;;;;;;12.20;74.48;99811.81;5110016;28;20129;-76
2021/04/29 04:30:27;;;;;;;14.75;8.18;;;;;;;12.36;73.86;99807.28;5112957;28;20039;-76
2021/04/29 04:32:53;;;;;;;20.90;9.80;;;;;;;12.42;73.93;99809.25;5118624;28;20069;-75
2021/04/29 04:35:19;;;;;;;20.17;10.32;;;;;;;12.34;74.68;99811.13;5120663;28;20365;-75
2021/04/29 04:37:45;;;;;;;19.90;10.23;;;;;;;12.18;75.49;99809.34;5118124;28;20298;-75
2021/04/29 04:40:12;;;;;;;19.17;10.13;;;;;;;12.00;76.63;99812.22;5122176;28;20061;-75
2021/04/29 04:42:38;;;;;;;18.80;10.65;;;;;;;11.93;77.21;99815.72;5118294;28;20186;-75
2021/04/29 04:45:06;;;;;;;20.55;10.20;;;;;;;12.00;78.20;99816.69;5122775;28;20036;-74
2021/04/29 04:47:32;;;;;;;22.35;10.65;;;;;;;12.38;76.52;99807.13;5114735;28;20321;-75
2021/04/29 04:49:57;;;;;;;18.17;10.50;;;;;;;12.70;75.31;99819.44;5122798;28;20050;-75
2021/04/29 04:52:22;;;;;;;19.00;11.00;;;;;;;12.95;75.38;99825.47;5114432;28;20111;-75
2021/04/29 04:54:49;;;;;;;21.55;10.00;;;;;;;13.21;73.63;99822.50;5121018;28;20385;-75
2021/04/29 04:57:15;;;;;;;21.45;9.65;;;;;;;13.41;73.05;99821.84;5115192;28;20363;-75
2021/04/29 04:59:41;;;;;;;22.55;9.18;;;;;;;13.37;72.97;99825.03;5118828;28;20050;-75
2021/04/29 05:02:06;;;;;;;14.55;8.93;;;;;;;13.20;72.80;99831.47;5113280;28;20218;-75
2021/04/29 05:04:33;;;;;;;19.10;9.68;;;;;;;13.13;74.45;99827.84;5118231;28;20043;-75
2021/04/29 05:06:59;;;;;;;22.55;9.15;;;;;;;13.07;75.01;99832.84;5116353;28;20031;-75
2021/04/29 05:09:24;;;;;;;21.88;10.07;;;;;;;13.00;74.78;99821.28;5106780;28;20091;-77
2021/04/29 05:11:50;;;;;;;27.45;10.05;;;;;;;12.95;75.46;99823.63;5110028;28;20103;-76
2021/04/29 05:14:15;;;;;;;23.60;10.00;;;;;;;12.85;74.61;99832.81;5107195;28;20020;-75
2021/04/29 05:16:43;;;;;;;20.25;9.65;;;;;;;12.88;75.76;99835.97;5107786;28;20090;-75
2021/04/29 05:19:09;;;;;;;20.75;10.25;;;;;;;12.96;76.23;99824.47;5106025;28;20064;-75
2021/04/29 05:21:35;;;;;;;16.58;10.77;;;;;;;13.01;75.71;99830.06;5117725;28;20047;-74
2021/04/29 05:24:00;;;;;;;17.10;9.80;;;;;;;13.03;76.91;99836.88;5119540;28;20237;-74
2021/04/29 05:26:26;;;;;;;18.15;10.43;;;;;;;12.97;77.78;99829.59;5113200;28;20310;-74
2021/04/29 05:28:51;;;;;;;25.42;11.65;;;;;;;12.86;77.72;99845.09;5116753;28;20369;-74
2021/04/29 05:31:17;;;;;;;26.25;11.45;;;;;;;12.85;78.51;99852.25;5117867;28;20090;-74
2021/04/29 05:33:42;;;;;;;21.17;11.07;;;;;;;12.83;79.40;99848.13;5116661;28;20087;-74
2021/04/29 05:36:08;;;;;;;23.73;11.55;;;;;;;12.73;80.40;99840.34;5118421;28;20330;-75
2021/04/29 05:38:33;;;;;;;18.15;11.38;;;;;;;12.68;78.84;99835.56;5114941;28;20035;-74
2021/04/29 05:40:58;;;;;;;19.38;10.07;;;;;;;12.69;79.07;99853.16;5118696;28;20035;-74
2021/04/29 05:43:24;;;;;;;22.27;10.80;;;;;;;12.70;80.33;99848.69;5109327;28;20107;-75
2021/04/29 05:45:49;;;;;;;22.17;11.18;;;;;;;12.66;79.50;99858.81;5112284;28;20023;-74
2021/04/29 05:48:15;;;;;;;22.08;10.65;;;;;;;12.63;80.44;99842.41;5113273;28;20035;-75
2021/04/29 05:50:40;;;;;;;24.02;11.05;;;;;;;12.54;79.17;99836.28;5115379;28;20030;-76
2021/04/29 05:53:06;;;;;;;24.50;12.88;;;;;;;12.74;80.46;99865.94;5110686;28;20099;-75
2021/04/29 05:55:31;;;;;;;30.92;13.23;;;;;;;12.72;79.60;99860.78;5118035;28;20079;-75
2021/04/29 05:57:59;;;;;;;25.65;12.77;;;;;;;13.06;78.14;99864.94;5105019;28;20284;-74
2021/04/29 06:00:25;;;;;;;29.60;14.82;;;;;;;13.05;78.51;99864.09;5117004;28;20095;-75
2021/04/29 06:02:50;;;;;;;27.13;14.82;;;;;;;13.21;79.49;99862.38;5115439;28;20123;-74
2021/04/29 06:05:16;;;;;;;29.85;14.52;;;;;;;13.27;77.57;99862.50;5121040;28;20019;-75
2021/04/29 06:07:42;;;;;;;34.95;16.98;;;;;;;13.20;78.05;99868.69;5114637;28;20016;-75
2021/04/29 06:10:08;;;;;;;41.80;16.70;;;;;;;13.26;78.62;99858.19;5121599;28;20041;-75
2021/04/29 06:12:33;;;;;;;40.38;17.85;;;;;;;13.56;77.33;99863.66;5113753;28;20011;-75
2021/04/29 06:14:59;;;;;;;43.88;22.35;;;;;;;13.80;76.20;99871.44;5121773;28;20031;-75
2021/04/29 06:17:24;;;;;;;52.50;22.30;;;;;;;14.15;74.28;99872.59;5107749;28;20019;-75
2021/04/29 06:19:50;;;;;;;47.83;20.60;;;;;;;14.55;72.96;99868.69;5112548;28;20044;-75
2021/04/29 06:22:15;;;;;;;44.22;20.75;;;;;;;14.58;73.11;99862.19;5105953;28;20062;-75
2021/04/29 06:24:41;;;;;;;46.33;19.48;;;;;;;14.74;72.09;99858.50;5122568;28;20094;-75
2021/04/29 06:27:06;;;;;;;39.15;20.38;;;;;;;15.14;72.38;99857.97;5105006;28;20099;-75
2021/04/29 06:29:34;;;;;;;61.08;23.85;;;;;;;15.15;71.94;99856.13;5122675;28;20039;-77
2021/04/29 06:31:59;;;;;;;52.83;24.38;;;;;;;15.05;70.74;99864.41;5114377;28;20214;-77
2021/04/29 06:34:25;;;;;;;50.05;22.90;;;;;;;15.42;69.52;99860.72;5121829;28;20031;-75
2021/04/29 06:36:50;;;;;;;46.20;21.88;;;;;;;15.80;68.74;99860.50;5114246;28;20032;-75
2021/04/29 06:39:19;;;;;;;49.08;22.98;;;;;;;16.25;67.43;99872.53;5120013;28;20325;-75
2021/04/29 06:41:44;;;;;;;50.50;23.35;;;;;;;16.01;67.58;99860.47;5115784;28;20028;-75
2021/04/29 06:44:09;;;;;;;54.92;24.58;;;;;;;15.69;68.23;99871.69;5116423;28;20054;-75
2021/04/29 06:46:35;;;;;;;46.92;24.23;;;;;;;15.53;68.54;99868.22;5108706;28;20024;-75
2021/04/29 06:49:00;;;;;;;47.40;24.08;;;;;;;15.26;70.37;99863.63;5102941;28;20305;-75
2021/04/29 06:51:26;;;;;;;57.25;24.50;;;;;;;15.16;71.60;99868.44;5100556;28;20024;-74
2021/04/29 06:53:51;;;;;;;57.35;27.10;;;;;;;15.37;72.57;99871.13;5102683;28;20027;-75
2021/04/29 06:56:17;;;;;;;49.53;25.50;;;;;;;15.26;71.31;99858.28;5101351;28;20091;-77
2021/04/29 06:58:42;;;;;;;57.38;23.77;;;;;;;15.38;71.49;99858.63;5106136;28;20040;-76
2021/04/29 07:01:07;;;;;;;52.05;25.55;;;;;;;15.40;69.69;99846.72;5102209;28;20329;-76
2021/04/29 07:03:33;;;;;;;56.75;26.08;;;;;;;15.61;69.89;99862.81;5102014;28;20065;-75
2021/04/29 07:05:58;;;;;;;45.10;24.55;;;;;;;16.11;68.58;99860.13;5101508;28;20118;-75
2021/04/29 07:08:24;;;;;;;51.97;24.98;;;;;;;16.54;66.72;99856.25;5100668;28;20262;-75
2021/04/29 07:10:49;;;;;;;47.80;23.02;;;;;;;16.82;65.40;99858.09;5101090;28;20100;-77
2021/04/29 07:13:16;;;;;;;50.17;23.20;;;;;;;17.17;63.52;99859.66;5101313;28;20055;-77
2021/04/29 07:15:41;;;;;;;40.03;20.90;;;;;;;17.43;61.62;99864.25;5103692;28;20060;-75
2021/04/29 07:18:09;;;;;;;43.22;22.25;;;;;;;17.19;62.13;99865.63;5100750;28;20095;-75
2021/04/29 07:20:34;;;;;;;48.53;22.90;;;;;;;17.39;62.27;99863.00;5105868;28;20032;-75
2021/04/29 07:23:00;;;;;;;37.92;20.85;;;;;;;17.28;64.32;99871.63;5100225;28;20440;-75
2021/04/29 07:25:26;;;;;;;42.15;21.00;;;;;;;17.81;62.17;99859.19;5105300;28;20353;-75
2021/04/29 07:27:52;;;;;;;39.55;21.15;;;;;;;17.62;62.18;99861.78;5100774;28;20046;-75
2021/04/29 07:30:18;;;;;;;42.22;20.67;;;;;;;17.53;62.13;99856.63;5101049;28;20260;-75
2021/04/29 07:32:44;;;;;;;41.92;21.55;;;;;;;18.25;60.32;99856.88;5102249;28;20322;-75
2021/04/29 07:35:10;;;;;;;49.40;23.38;;;;;;;17.88;62.20;99858.34;5102320;28;20040;-75
2021/04/29 07:37:36;;;;;;;47.22;22.20;;;;;;;17.36;62.31;99851.88;5101492;28;20028;-75
2021/04/29 07:40:03;;;;;;;44.40;22.40;;;;;;;17.21;65.72;99873.47;5102213;28;20322;-75
2021/04/29 07:42:29;;;;;;;44.65;22.63;;;;;;;17.18;65.68;99858.63;5100379;28;20336;-75
2021/04/29 07:44:54;;;;;;;44.97;21.88;;;;;;;17.62;62.72;99861.78;5101892;28;20043;-75
2021/04/29 07:47:19;;;;;;;44.25;21.85;;;;;;;18.28;61.05;99867.19;5099870;28;20024;-75
2021/04/29 07:49:45;;;;;;;39.45;19.92;;;;;;;18.57;59.00;99866.69;5105239;28;20098;-75
2021/04/29 07:52:10;;;;;;;34.13;19.35;;;;;;;19.12;57.41;99857.25;5100678;28;20051;-77
2021/04/29 07:54:36;;;;;;;38.50;19.38;;;;;;;19.68;59.09;99861.88;5101312;28;20424;-77
2021/04/29 07:57:02;;;;;;;34.20;19.23;;;;;;;19.13;57.28;99852.69;5101003;28;20027;-75
2021/04/29 07:59:30;;;;;;;31.00;18.75;;;;;;;18.45;59.36;99863.03;5114765;28;20077;-75
2021/04/29 08:01:57;;;;;;;34.10;18.23;;;;;;;18.66;59.84;99861.97;5098655;28;20513;-75
2021/04/29 08:04:22;;;;;;;41.50;19.92;;;;;;;18.92;59.20;99853.00;5101457;28;20101;-75
2021/04/29 08:06:48;;;;;;;36.47;19.27;;;;;;;19.61;57.44;99852.22;5100839;28;20731;-75
2021/04/29 08:09:13;;;;;;;35.47;18.70;;;;;;;19.94;55.76;99851.97;5107145;28;20038;-75
2021/04/29 08:11:39;;;;;;;31.25;17.90;;;;;;;20.07;55.46;99843.78;5106786;28;20102;-75
2021/04/29 08:14:04;;;;;;;32.95;18.40;;;;;;;20.26;53.47;99847.31;5105569;28;20036;-75
2021/04/29 08:16:30;;;;;;;32.30;17.60;;;;;;;19.61;57.64;99839.59;5113654;28;20016;-75
2021/04/29 08:18:56;;;;;;;30.35;16.02;;;;;;;19.80;56.39;99843.19;5119850;28;20147;-76
2021/04/29 08:21:22;;;;;;;34.72;16.35;;;;;;;19.82;55.55;99835.75;5118850;28;20245;-76
2021/04/29 08:23:47;;;;;;;35.58;16.38;;;;;;;19.64;55.02;99836.47;5119502;28;20040;-75
2021/04/29 08:26:12;;;;;;;27.25;15.63;;;;;;;19.77;55.94;99836.41;5119261;28;20020;-75
2021/04/29 08:28:38;;;;;;;32.10;16.40;;;;;;;19.90;56.60;99840.03;5119702;28;20267;-75
2021/04/29 08:31:04;;;;;;;28.77;15.85;;;;;;;19.71;55.78;99845.31;5120024;28;20030;-75
2021/04/29 08:33:29;;;;;;;29.75;15.95;;;;;;;20.06;54.43;99840.28;5119179;28;20248;-77
2021/04/29 08:35:55;;;;;;;28.38;14.70;;;;;;;20.65;52.11;99827.25;5120017;28;20027;-76
2021/04/29 08:38:20;;;;;;;29.25;15.80;;;;;;;20.57;52.42;99830.25;5119445;28;20083;-76
2021/04/29 08:40:46;;;;;;;24.98;15.05;;;;;;;20.20;52.39;99830.22;5118425;28;20040;-76
2021/04/29 08:43:12;;;;;;;29.75;15.57;;;;;;;20.37;53.08;99823.22;5119639;28;20036;-75
2021/04/29 08:45:38;;;;;;;32.30;14.82;;;;;;;20.68;52.43;99816.06;5116299;28;20039;-76
2021/04/29 08:48:04;;;;;;;30.33;13.98;;;;;;;20.95;52.32;99822.75;5120108;28;20042;-76
2021/04/29 08:50:31;;;;;;;29.33;14.95;;;;;;;20.33;54.05;99827.38;5117773;28;20065;-75
2021/04/29 08:52:57;;;;;;;33.08;15.50;;;;;;;19.89;56.03;99833.81;5119793;28;20563;-75
2021/04/29 08:55:26;;;;;;;25.35;14.68;;;;;;;20.02;54.81;99828.31;5117646;28;20031;-75
2021/04/29 08:57:52;;;;;;;27.83;14.50;;;;;;;20.61;51.96;99834.13;5119346;28;20031;-75
2021/04/29 09:00:20;;;;;;;30.00;14.02;;;;;;;20.90;51.82;99829.88;5118378;28;20329;-75
2021/04/29 09:02:46;;;;;;;25.75;14.00;;;;;;;21.33;50.89;99813.56;5119291;28;20076;-75
2021/04/29 09:05:17;;;;;;;24.27;12.48;;;;;;;21.52;49.62;99817.00;5116743;28;20028;-76
2021/04/29 09:07:57;;;;;;;24.90;13.75;;;;;;;21.49;50.43;99809.38;5119069;28;20039;-75
2021/04/29 09:10:42;;;;;;;28.10;13.35;;;;;;;21.73;48.53;99812.91;5117072;28;20026;-76
2021/04/29 09:13:24;;;;;;;23.17;12.68;;;;;;;21.86;48.92;99812.72;5119788;28;20099;-77
2021/04/29 09:15:50;;;;;;;26.88;13.52;;;;;;;21.98;48.89;99802.78;5120874;28;20034;-78
2021/04/29 09:18:20;;;;;;;24.10;12.48;;;;;;;21.64;50.03;99805.19;5118704;27;20020;-76
2021/04/29 09:20:58;;;;;;;18.75;11.52;;;;;;;20.90;53.08;99794.88;5122584;28;20043;-75
2021/04/29 09:23:29;;;;;;;23.45;12.73;;;;;;;20.67;52.67;99799.09;5121885;28;20259;-75
2021/04/29 09:26:00;;;;;;;24.00;12.88;;;;;;;21.18;51.73;99788.91;5121696;28;20038;-75
2021/04/29 09:28:37;;;;;;;21.70;12.05;;;;;;;20.98;53.92;99787.31;5122144;27;20037;-75
2021/04/29 09:31:05;;;;;;;17.80;11.02;;;;;;;20.51;53.73;99777.34;5121243;27;20028;-75
2021/04/29 09:33:35;;;;;;;22.85;11.55;;;;;;;20.42;53.11;99776.84;5123611;28;20292;-75
2021/04/29 09:36:00;;;;;;;22.65;11.15;;;;;;;20.58;54.01;99784.31;5121890;28;20045;-75
2021/04/29 09:38:39;;;;;;;21.63;10.98;;;;;;;20.93;51.87;99781.78;5123699;28;20090;-74
2021/04/29 09:41:07;;;;;;;22.90;11.95;;;;;;;21.18;52.24;99778.94;5121648;28;20254;-76
2021/04/29 09:43:34;;;;;;;24.85;11.73;;;;;;;21.30;50.97;99768.22;5123631;28;20035;-75
2021/04/29 09:46:02;;;;;;;19.02;10.25;;;;;;;20.71;52.39;99775.22;5122907;27;20031;-76
2021/04/29 09:48:36;;;;;;;22.85;10.40;;;;;;;20.41;53.84;99780.59;5123532;27;20340;-75
2021/04/29 09:51:02;;;;;;;15.93;10.13;;;;;;;20.37;53.05;99769.41;5121592;27;20043;-76
2021/04/29 09:53:38;;;;;;;21.13;10.43;;;;;;;19.93;56.27;99773.22;5123159;28;20040;-75
2021/04/29 09:56:09;;;;;;;19.25;9.75;;;;;;;19.75;55.60;99776.66;5122781;28;20023;-76
2021/04/29 09:58:35;;;;;;;19.75;10.02;;;;;;;19.92;55.63;99774.25;5124629;28;20043;-77
2021/04/29 10:01:01;;;;;;;15.70;9.98;;;;;;;19.91;56.15;99761.88;5118170;28;20136;-75
2021/04/29 10:03:26;;;;;;;21.52;9.38;;;;;;;20.06;57.23;99770.38;5116286;28;20081;-75
2021/04/29 10:05:54;;;;;;;17.02;9.00;;;;;;;20.08;56.77;99772.84;5117553;28;20031;-75
2021/04/29 10:08:26;;;;;;;16.48;10.38;;;;;;;20.16;57.79;99775.25;5115926;28;20103;-76
2021/04/29 10:10:56;;;;;;;25.58;10.90;;;;;;;20.24;56.78;99776.81;5117844;28;20035;-76
2021/04/29 10:13:30;;;;;;;23.63;9.75;;;;;;;20.37;55.89;99771.28;5114595;28;20043;-76
2021/04/29 10:15:57;;;;;;;19.40;8.93;;;;;;;20.02;56.23;99763.00;5117809;28;20333;-75
2021/04/29 10:18:23;;;;;;;17.17;8.80;;;;;;;20.24;55.00;99753.44;5108584;28;20051;-75
2021/04/29 10:20:50;;;;;;;18.55;8.82;;;;;;;20.36;57.18;99743.56;5103848;28;20023;-76
2021/04/29 10:23:19;;;;;;;16.70;8.48;;;;;;;20.51;55.30;99751.28;5102703;28;20099;-75
2021/04/29 10:25:54;;;;;;;16.05;9.23;;;;;;;20.51;53.76;99732.44;5103056;28;20031;-76
2021/04/29 10:28:35;;;;;;;16.92;8.70;;;;;;;20.80;54.06;99749.66;5103244;28;20062;-76
2021/04/29 10:31:14;;;;;;;15.32;8.73;;;;;;;20.62;54.25;99755.91;5102138;28;20285;-75
2021/04/29 10:33:48;;;;;;;21.08;9.18;;;;;;;20.37;54.96;99747.09;5102725;28;20027;-75
2021/04/29 10:36:14;;;;;;;16.20;9.63;;;;;;;20.38;53.59;99733.41;5103191;28;20105;-78
2021/04/29 10:38:39;;;;;;;15.80;9.05;;;;;;;20.49;56.17;99731.03;5102110;28;20322;-78
2021/04/29 10:41:23;;;;;;;18.63;9.77;;;;;;;20.32;54.93;99739.69;5101829;28;20043;-76
2021/04/29 10:43:51;;;;;;;25.38;10.40;;;;;;;20.30;56.91;99735.59;5101496;28;20055;-75
2021/04/29 10:46:26;;;;;;;19.90;10.43;;;;;;;20.02;56.34;99702.00;5101700;28;20039;-75
2021/04/29 10:48:53;;;;;;;22.92;10.00;;;;;;;20.15;54.97;99727.09;5104151;28;20036;-75
2021/04/29 10:51:21;;;;;;;19.05;9.73;;;;;;;20.06;56.30;99724.69;5101305;28;20069;-76
2021/04/29 10:53:46;;;;;;;16.10;9.43;;;;;;;20.35;56.85;99722.28;5103382;28;20048;-75
2021/04/29 10:56:18;;;;;;;20.10;9.30;;;;;;;20.76;54.90;99723.44;5102146;28;20281;-75
2021/04/29 10:58:45;;;;;;;18.00;9.48;;;;;;;21.01;55.01;99738.41;5101345;28;20048;-76
2021/04/29 11:01:17;;;;;;;15.80;8.48;;;;;;;20.57;55.42;99739.63;5101845;28;20028;-75
2021/04/29 11:03:49;;;;;;;18.05;9.30;;;;;;;20.55;55.69;99719.38;5101707;28;20027;-75
2021/04/29 11:06:20;;;;;;;18.88;8.98;;;;;;;20.53;55.47;99729.53;5101670;28;20100;-76
2021/04/29 11:08:50;;;;;;;17.33;9.48;;;;;;;20.30;54.41;99722.97;5101350;28;20036;-76
2021/04/29 11:11:26;;;;;;;24.67;9.52;;;;;;;20.45;57.78;99714.53;5100862;28;20028;-75
2021/04/29 11:13:59;;;;;;;20.38;10.18;;;;;;;20.71;55.34;99708.78;5105465;28;20043;-75
2021/04/29 11:16:25;;;;;;;17.90;9.82;;;;;;;20.91;57.54;99708.53;5102540;28;20067;-75
2021/04/29 11:18:50;;;;;;;18.55;8.80;;;;;;;21.09;55.06;99706.81;5100253;28;20032;-77
2021/04/29 11:21:27;;;;;;;19.50;9.52;;;;;;;20.94;54.68;99699.19;5102182;28;20063;-77